Time;durP1;ratioP1;P1;durP2;ratioP2;P2;SDS_P1;SDS_P2;PMS_P1;PMS_P2;Temp;Humidity;BMP_temperature;BMP_pressure;BME280_temperature;BME280_humidity;BME280_pressure;Samples;Min_cycle;Max_cycle;Signal;HPM_P1;HPM_P2
2022/12/04 00:00:13;;;;;;;4.25;2.13;;;15.00;99.90;;;;;;7401586;19;19918;-47
2022/12/04 00:02:43;;;;;;;3.97;1.55;;;15.00;99.90;;;;;;7402133;19;19918;-46
2022/12/04 00:05:12;;;;;;;3.42;1.52;;;15.00;99.90;;;;;;7401999;19;19911;-47
2022/12/04 00:07:44;;;;;;;4.07;2.28;;;15.00;99.90;;;;;;7402088;19;19922;-45
2022/12/04 00:10:13;;;;;;;4.18;2.03;;;15.00;99.90;;;;;;7402131;19;19943;-49
2022/12/04 00:12:42;;;;;;;4.28;2.53;;;15.00;99.90;;;;;;7402025;19;19922;-48
2022/12/04 00:15:14;;;;;;;3.78;2.05;;;15.00;99.90;;;;;;7403676;19;19915;-46
2022/12/04 00:17:43;;;;;;;3.88;1.73;;;15.00;99.90;;;;;;7401310;19;19919;-46
2022/12/04 00:20:12;;;;;;;4.78;2.63;;;15.00;99.90;;;;;;7400389;19;19918;-46
2022/12/04 00:22:41;;;;;;;4.35;2.28;;;15.00;99.90;;;;;;7401384;19;19923;-47
2022/12/04 00:25:10;;;;;;;3.70;2.05;;;15.00;99.90;;;;;;7401170;19;20281;-46
2022/12/04 00:27:39;;;;;;;3.38;1.63;;;15.00;99.90;;;;;;7400725;19;20281;-46
2022/12/04 00:30:10;;;;;;;3.00;1.50;;;15.00;99.90;;;;;;7399620;19;19919;-47
2022/12/04 00:32:41;;;;;;;4.75;2.60;;;15.00;99.90;;;;;;7401186;19;19919;-49
2022/12/04 00:35:11;;;;;;;3.58;2.47;;;15.00;99.90;;;;;;7400762;19;19922;-49
2022/12/04 00:37:39;;;;;;;3.08;1.50;;;15.00;99.90;;;;;;7400725;19;20369;-48
2022/12/04 00:40:10;;;;;;;3.75;1.45;;;15.00;99.90;;;;;;7400032;19;19918;-47
2022/12/04 00:42:40;;;;;;;4.07;2.33;;;15.00;99.90;;;;;;7400812;19;19970;-47
2022/12/04 00:45:09;;;;;;;3.20;1.45;;;15.00;99.90;;;;;;7400628;19;19911;-47
2022/12/04 00:47:41;;;;;;;3.42;1.85;;;15.00;99.90;;;;;;7400618;19;19925;-50
2022/12/04 00:50:11;;;;;;;4.90;1.92;;;14.90;99.90;;;;;;7400454;19;19929;-48
2022/12/04 00:52:40;;;;;;;2.65;1.83;;;14.90;99.90;;;;;;7400406;19;19927;-50
2022/12/04 00:55:10;;;;;;;3.75;1.80;;;14.90;99.90;;;;;;7400272;19;19930;-46
2022/12/04 00:57:39;;;;;;;4.25;2.50;;;14.90;99.90;;;;;;7404576;19;19918;-48
2022/12/04 01:00:10;;;;;;;3.92;1.73;;;14.90;99.90;;;;;;7405816;19;19922;-46
2022/12/04 01:02:41;;;;;;;4.97;1.80;;;14.90;99.90;;;;;;7407014;19;19922;-47
2022/12/04 01:05:10;;;;;;;3.58;1.40;;;14.90;99.90;;;;;;7406961;19;19919;-49
2022/12/04 01:07:39;;;;;;;2.97;1.40;;;14.90;99.90;;;;;;7406703;19;19931;-48
2022/12/04 01:10:13;;;;;;;4.30;2.53;;;14.90;99.90;;;;;;7407001;19;19914;-50
2022/12/04 01:12:42;;;;;;;4.50;1.83;;;14.90;99.90;;;;;;7406845;19;19922;-47
2022/12/04 01:15:12;;;;;;;3.72;2.20;;;14.90;99.90;;;;;;7406613;19;19918;-48
2022/12/04 01:17:44;;;;;;;4.43;2.67;;;14.90;99.90;;;;;;7406640;19;20340;-47
2022/12/04 01:20:14;;;;;;;4.32;2.40;;;14.90;99.90;;;;;;7405569;19;19922;-47
2022/12/04 01:22:43;;;;;;;3.25;1.80;;;14.90;99.90;;;;;;7406635;19;19923;-48
2022/12/04 01:25:13;;;;;;;4.00;1.90;;;14.80;99.90;;;;;;7406295;19;19918;-46
2022/12/04 01:27:42;;;;;;;4.13;2.05;;;14.90;99.90;;;;;;7406020;19;19926;-47
2022/12/04 01:30:11;;;;;;;3.60;1.55;;;14.80;99.90;;;;;;7404688;19;19918;-50
2022/12/04 01:32:43;;;;;;;4.13;1.73;;;14.80;99.90;;;;;;7406657;19;19928;-46
2022/12/04 01:35:12;;;;;;;3.50;2.47;;;14.80;99.90;;;;;;7406563;19;19922;-47
2022/12/04 01:37:41;;;;;;;4.13;1.83;;;14.80;99.90;;;;;;7405860;19;19919;-47
2022/12/04 01:40:15;;;;;;;4.07;1.63;;;14.80;99.90;;;;;;7404941;19;19922;-50
2022/12/04 01:42:45;;;;;;;4.20;2.75;;;14.80;99.90;;;;;;7406042;19;19927;-48
2022/12/04 01:45:42;;;;;;;3.00;1.08;;;14.80;99.90;;;;;;7405843;19;19918;-49
2022/12/04 01:48:19;;;;;;;3.92;1.65;;;14.80;99.90;;;;;;7404863;19;19922;-47
2022/12/04 01:50:52;;;;;;;3.65;1.75;;;14.80;99.90;;;;;;7405843;19;19914;-47
2022/12/04 01:53:22;;;;;;;4.65;2.90;;;14.80;99.90;;;;;;7405724;19;19923;-46
2022/12/04 01:55:51;;;;;;;4.80;2.65;;;14.80;99.90;;;;;;7405932;19;19925;-48
2022/12/04 01:58:26;;;;;;;3.97;2.20;;;14.80;99.90;;;;;;7405325;19;19919;-47
2022/12/04 02:01:00;;;;;;;4.60;2.75;;;14.80;99.90;;;;;;7404422;19;19930;-46
2022/12/04 02:03:32;;;;;;;3.65;1.92;;;14.80;99.90;;;;;;7405396;19;20263;-49
2022/12/04 02:06:01;;;;;;;3.47;2.13;;;14.80;99.90;;;;;;7405133;19;19938;-46
2022/12/04 02:08:31;;;;;;;3.35;1.98;;;14.80;99.90;;;;;;7405144;19;20009;-46
2022/12/04 02:11:11;;;;;;;4.35;1.95;;;14.80;99.90;;;;;;7405128;19;20286;-47
2022/12/04 02:13:49;;;;;;;3.97;2.60;;;14.80;99.90;;;;;;7405082;19;19955;-47
2022/12/04 02:16:25;;;;;;;3.80;2.22;;;14.80;99.90;;;;;;7405139;19;19917;-48
2022/12/04 02:19:04;;;;;;;4.28;2.58;;;14.80;99.90;;;;;;7405089;19;19922;-47
2022/12/04 02:21:37;;;;;;;3.50;1.65;;;14.70;99.90;;;;;;7402846;19;19915;-50
2022/12/04 02:24:28;;;;;;;4.30;2.10;;;14.70;99.90;;;;;;7405360;19;20340;-48
2022/12/04 02:27:00;;;;;;;3.72;2.40;;;14.70;99.90;;;;;;7404706;19;19919;-48
2022/12/04 02:29:39;;;;;;;3.72;2.67;;;14.80;99.90;;;;;;7403779;19;19922;-49
2022/12/04 02:32:18;;;;;;;3.88;2.22;;;14.70;99.90;;;;;;7402504;19;19925;-49
2022/12/04 02:34:53;;;;;;;4.80;2.40;;;14.70;99.90;;;;;;7404349;19;20365;-48
2022/12/04 02:37:30;;;;;;;4.35;2.30;;;14.70;99.90;;;;;;7404616;19;19926;-50
2022/12/04 02:40:06;;;;;;;3.92;1.85;;;14.70;99.90;;;;;;7403827;19;19918;-49
2022/12/04 02:42:40;;;;;;;3.38;1.90;;;14.70;99.90;;;;;;7404178;19;19933;-46
2022/12/04 02:45:16;;;;;;;3.95;2.63;;;14.70;99.90;;;;;;7404267;19;20355;-47
2022/12/04 02:47:48;;;;;;;3.92;2.00;;;14.70;99.90;;;;;;7404085;19;19926;-47
2022/12/04 02:50:21;;;;;;;3.95;1.60;;;14.70;99.90;;;;;;7404378;19;19914;-46
2022/12/04 02:52:55;;;;;;;4.35;2.00;;;14.70;99.90;;;;;;7404426;19;20286;-49
2022/12/04 02:55:31;;;;;;;4.95;1.92;;;14.70;99.90;;;;;;7404366;19;19911;-46
2022/12/04 02:58:05;;;;;;;3.60;1.70;;;14.70;99.90;;;;;;7403533;19;19951;-48
2022/12/04 03:00:38;;;;;;;3.40;2.30;;;14.70;99.90;;;;;;7403617;19;19943;-49
2022/12/04 03:03:11;;;;;;;3.92;2.65;;;14.70;99.90;;;;;;7403822;19;19933;-46
2022/12/04 03:05:43;;;;;;;3.75;1.85;;;14.60;99.90;;;;;;7403803;19;19918;-47
2022/12/04 03:08:17;;;;;;;4.28;2.72;;;14.70;99.90;;;;;;7403896;19;19918;-47
2022/12/04 03:10:50;;;;;;;3.88;2.35;;;14.70;99.90;;;;;;7405303;19;19931;-50
2022/12/04 03:13:22;;;;;;;4.93;2.70;;;14.70;99.90;;;;;;7403533;19;19914;-47
2022/12/04 03:16:00;;;;;;;4.22;2.67;;;14.60;99.90;;;;;;7403839;19;19923;-47
2022/12/04 03:18:33;;;;;;;5.25;2.88;;;14.60;99.90;;;;;;7403395;19;19929;-46
2022/12/04 03:21:05;;;;;;;3.78;1.80;;;14.60;99.90;;;;;;7401395;19;20250;-49
2022/12/04 03:23:38;;;;;;;4.15;2.47;;;14.60;99.90;;;;;;7403237;19;20559;-47
2022/12/04 03:26:13;;;;;;;4.20;2.33;;;14.60;99.90;;;;;;7403024;19;19914;-47
2022/12/04 03:28:48;;;;;;;3.60;1.80;;;14.60;99.90;;;;;;7403003;19;19929;-48
2022/12/04 03:31:26;;;;;;;4.32;2.33;;;14.60;99.90;;;;;;7401894;19;19917;-46
2022/12/04 03:33:59;;;;;;;4.35;2.28;;;14.60;99.90;;;;;;7402978;19;19919;-49
2022/12/04 03:36:33;;;;;;;5.47;2.88;;;14.60;99.90;;;;;;7403563;19;19923;-48
2022/12/04 03:39:09;;;;;;;4.68;2.67;;;14.60;99.90;;;;;;7403252;19;19934;-47
2022/12/04 03:41:49;;;;;;;3.10;1.52;;;14.60;99.90;;;;;;7401503;19;19929;-47
2022/12/04 03:44:24;;;;;;;3.58;1.80;;;14.60;99.90;;;;;;7402740;19;19963;-47
2022/12/04 03:47:00;;;;;;;5.05;2.72;;;14.60;99.90;;;;;;7402899;19;19937;-48
2022/12/04 03:49:34;;;;;;;;;;;14.60;99.90;;;;;;7405016;19;19932;-47
2022/12/04 03:52:08;;;;;;;4.28;2.80;;;14.60;99.90;;;;;;7402310;19;19918;-49
2022/12/04 03:54:42;;;;;;;4.45;2.75;;;14.60;99.90;;;;;;7402302;19;20581;-46
2022/12/04 03:57:16;;;;;;;4.28;1.70;;;14.60;99.90;;;;;;7402245;19;19914;-50
2022/12/04 03:59:50;;;;;;;4.28;2.60;;;14.60;99.90;;;;;;7402117;19;19918;-47
2022/12/04 04:02:24;;;;;;;3.88;2.47;;;14.60;99.90;;;;;;7400560;19;19943;-46
2022/12/04 04:04:57;;;;;;;3.75;1.80;;;14.60;99.90;;;;;;7402016;19;19919;-50
2022/12/04 04:07:30;;;;;;;5.20;3.30;;;14.60;99.90;;;;;;7401928;19;19918;-46
2022/12/04 04:10:04;;;;;;;4.32;2.83;;;14.60;99.90;;;;;;7404877;19;19925;-47
2022/12/04 04:12:38;;;;;;;3.80;2.38;;;14.60;99.90;;;;;;7401845;19;19911;-49
2022/12/04 04:26:14;;;;;;;4.50;2.38;;;14.60;99.90;;;;;;7401047;19;19925;-47
2022/12/04 04:28:44;;;;;;;3.80;2.30;;;14.60;99.90;;;;;;7401191;19;19918;-47
2022/12/04 04:31:24;;;;;;;3.78;1.80;;;14.60;99.90;;;;;;7401125;19;19937;-47
2022/12/04 04:34:04;;;;;;;3.75;2.60;;;14.60;99.90;;;;;;7410417;19;19919;-50
2022/12/04 04:36:43;;;;;;;3.90;2.35;;;14.50;99.90;;;;;;7407819;19;19917;-47
2022/12/04 04:39:21;;;;;;;3.58;1.65;;;14.60;99.90;;;;;;7407764;19;19918;-52
2022/12/04 04:41:55;;;;;;;4.15;1.75;;;14.50;99.90;;;;;;7405619;19;19919;-46
2022/12/04 04:44:29;;;;;;;4.53;1.90;;;14.50;99.90;;;;;;7407610;19;20344;-47
2022/12/04 04:47:05;;;;;;;4.68;2.92;;;14.50;99.90;;;;;;7407366;19;19940;-49
2022/12/04 04:49:39;;;;;;;4.20;1.77;;;14.50;99.90;;;;;;7407421;19;19915;-46
2022/12/04 04:52:09;;;;;;;4.28;2.90;;;14.50;99.90;;;;;;7408153;19;19919;-48
2022/12/04 04:54:38;;;;;;;;;;;14.50;99.90;;;;;;7409650;19;20253;-46
2022/12/04 04:57:07;;;;;;;5.28;2.10;;;14.50;99.90;;;;;;7406559;19;19919;-48
2022/12/04 04:59:36;;;;;;;4.45;2.00;;;14.50;99.90;;;;;;7407666;19;19923;-47
2022/12/04 05:02:05;;;;;;;3.70;1.73;;;14.50;99.90;;;;;;7404820;19;19927;-48
2022/12/04 05:04:37;;;;;;;4.40;2.08;;;14.50;99.90;;;;;;7406862;19;19990;-47
2022/12/04 05:07:06;;;;;;;3.70;1.52;;;14.50;99.90;;;;;;7406905;19;20265;-49
2022/12/04 05:09:35;;;;;;;3.38;1.50;;;14.50;99.90;;;;;;7406837;19;19921;-44
2022/12/04 05:12:03;;;;;;;4.65;2.88;;;14.50;99.90;;;;;;7406854;19;19915;-46
2022/12/04 05:14:32;;;;;;;4.57;2.15;;;14.50;99.90;;;;;;7407392;19;19929;-46
2022/12/04 05:17:01;;;;;;;3.72;2.00;;;14.50;99.90;;;;;;7406897;19;19925;-48
2022/12/04 05:22:18;;;;;;;4.20;2.03;;;14.50;99.90;;;;;;7404788;19;19922;-48
2022/12/04 05:24:47;;;;;;;4.22;2.03;;;14.40;99.90;;;;;;7406586;19;19911;-49
2022/12/04 05:27:16;;;;;;;4.55;3.10;;;14.40;99.90;;;;;;7405820;19;20423;-49
2022/12/04 05:29:45;;;;;;;4.00;1.90;;;14.40;99.90;;;;;;7405320;19;20352;-47
2022/12/04 05:32:14;;;;;;;4.40;2.20;;;14.40;99.90;;;;;;7406131;19;20260;-45
2022/12/04 05:34:46;;;;;;;4.13;2.20;;;14.40;99.90;;;;;;7406123;19;20337;-46
2022/12/04 05:37:14;;;;;;;4.20;2.40;;;14.40;99.90;;;;;;7406234;19;19926;-46
2022/12/04 05:39:44;;;;;;;3.40;1.98;;;14.40;99.90;;;;;;7405897;19;19949;-47
2022/12/04 05:42:13;;;;;;;;;;;14.40;99.90;;;;;;7405764;19;19985;-46
2022/12/04 05:44:42;;;;;;;4.13;2.03;;;14.40;99.90;;;;;;7405866;19;20272;-48
2022/12/04 05:47:12;;;;;;;3.80;2.05;;;14.40;99.90;;;;;;7405906;19;19922;-48
2022/12/04 05:49:41;;;;;;;4.82;2.67;;;14.40;99.90;;;;;;7406053;19;19925;-48
2022/12/04 05:52:12;;;;;;;4.32;2.10;;;14.40;99.90;;;;;;7405779;19;19915;-48
2022/12/04 05:54:41;;;;;;;3.92;2.80;;;14.40;99.90;;;;;;7406081;19;20341;-47
2022/12/04 05:57:10;;;;;;;4.13;1.92;;;14.40;99.90;;;;;;7405651;19;19918;-49
2022/12/04 05:59:39;;;;;;;4.63;2.40;;;14.40;99.90;;;;;;7405547;19;19980;-46
2022/12/04 06:02:08;;;;;;;4.45;2.75;;;14.40;99.90;;;;;;7404152;19;19911;-46
2022/12/04 06:04:39;;;;;;;4.47;2.58;;;14.40;99.90;;;;;;7405589;19;19925;-49
2022/12/04 06:07:08;;;;;;;4.20;1.67;;;14.40;99.90;;;;;;7406340;19;19907;-47
2022/12/04 06:09:40;;;;;;;4.88;2.42;;;14.40;99.90;;;;;;7405425;19;19927;-45
2022/12/04 06:12:09;;;;;;;4.30;2.30;;;14.30;99.90;;;;;;7405247;19;19921;-48
2022/12/04 06:14:38;;;;;;;4.13;2.15;;;14.30;99.90;;;;;;7405273;19;19918;-47
2022/12/04 06:17:06;;;;;;;4.30;2.53;;;14.30;99.90;;;;;;7405044;19;19918;-45
2022/12/04 06:19:35;;;;;;;4.72;1.90;;;14.30;99.90;;;;;;7404787;19;20658;-49
2022/12/04 06:22:05;;;;;;;5.40;3.53;;;14.30;99.90;;;;;;7404266;19;19981;-49
2022/12/04 06:24:34;;;;;;;4.40;2.50;;;14.30;99.90;;;;;;7404802;19;19910;-45
2022/12/04 06:27:06;;;;;;;4.93;2.45;;;14.30;99.90;;;;;;7404461;19;20345;-48
2022/12/04 06:29:35;;;;;;;4.40;2.08;;;14.30;99.90;;;;;;7404163;19;19923;-47
2022/12/04 06:32:04;;;;;;;4.50;2.83;;;14.30;99.90;;;;;;7402597;19;19919;-49
2022/12/04 06:34:34;;;;;;;4.18;2.53;;;14.30;99.90;;;;;;7404883;19;19941;-46
2022/12/04 06:37:03;;;;;;;;;;;14.30;99.90;;;;;;7407060;19;19914;-48
2022/12/04 06:39:32;;;;;;;3.88;2.47;;;14.30;99.90;;;;;;7404632;19;20595;-47
2022/12/04 06:42:00;;;;;;;4.10;1.98;;;14.30;99.90;;;;;;7403449;19;19931;-46
2022/12/04 06:44:32;;;;;;;4.97;2.63;;;14.30;99.90;;;;;;7404809;19;19925;-48
2022/12/04 06:47:01;;;;;;;4.47;2.17;;;14.30;99.90;;;;;;7404219;19;19943;-44
2022/12/04 06:49:31;;;;;;;4.63;2.25;;;14.30;99.90;;;;;;7404168;19;20314;-46
2022/12/04 06:51:59;;;;;;;4.35;2.90;;;14.30;99.90;;;;;;7404053;19;19915;-47
2022/12/04 06:54:28;;;;;;;4.07;2.63;;;14.30;99.90;;;;;;7399753;19;19960;-46
2022/12/04 06:56:57;;;;;;;5.13;3.65;;;14.30;99.90;;;;;;7403528;19;19922;-45
2022/12/04 06:59:27;;;;;;;5.75;3.42;;;14.30;99.90;;;;;;7403905;19;19919;-45
2022/12/04 07:01:58;;;;;;;3.95;1.88;;;14.30;99.90;;;;;;7403297;19;19914;-47
2022/12/04 07:04:27;;;;;;;4.60;2.60;;;14.30;99.90;;;;;;7404229;19;19914;-45
2022/12/04 07:06:56;;;;;;;4.65;2.60;;;14.30;99.90;;;;;;7403836;19;20291;-45
2022/12/04 07:09:25;;;;;;;5.55;3.20;;;14.30;99.90;;;;;;7403679;19;19928;-48
2022/12/04 07:11:54;;;;;;;4.18;2.42;;;14.30;99.90;;;;;;7403747;19;20299;-45
2022/12/04 07:14:23;;;;;;;4.38;2.00;;;14.30;99.90;;;;;;7403509;19;19970;-45
2022/12/04 07:16:52;;;;;;;5.07;2.28;;;14.30;99.90;;;;;;7403726;19;20328;-48
2022/12/04 07:19:23;;;;;;;3.75;2.13;;;14.30;99.90;;;;;;7403583;19;19938;-47
2022/12/04 07:21:55;;;;;;;4.93;3.03;;;14.20;99.90;;;;;;7402486;19;19922;-50
2022/12/04 07:24:24;;;;;;;5.10;3.03;;;14.20;99.90;;;;;;7401916;19;19914;-45
2022/12/04 07:26:53;;;;;;;5.10;2.75;;;14.20;99.90;;;;;;7402762;19;19922;-47
2022/12/04 07:29:21;;;;;;;4.85;2.72;;;14.20;99.90;;;;;;7402595;19;19926;-46
2022/12/04 07:31:50;;;;;;;5.00;2.92;;;14.20;99.90;;;;;;7401602;19;19911;-49
2022/12/04 07:34:19;;;;;;;4.93;2.95;;;14.20;99.90;;;;;;7401295;19;19923;-46
2022/12/04 07:36:51;;;;;;;4.25;2.15;;;14.20;99.90;;;;;;7402783;19;19925;-45
2022/12/04 07:39:19;;;;;;;5.22;3.17;;;14.20;99.90;;;;;;7402776;19;19945;-47
2022/12/04 07:41:48;;;;;;;5.38;3.38;;;14.20;99.90;;;;;;7402426;19;19925;-45
2022/12/04 07:44:17;;;;;;;4.55;2.45;;;14.20;99.90;;;;;;7403086;19;19919;-46
2022/12/04 07:46:46;;;;;;;5.18;2.63;;;14.20;99.90;;;;;;7403049;19;19915;-48
2022/12/04 07:49:15;;;;;;;4.40;2.15;;;14.20;99.90;;;;;;7402583;19;19966;-49
2022/12/04 07:51:44;;;;;;;4.60;2.92;;;14.20;99.90;;;;;;7402470;19;19978;-48
2022/12/04 07:54:16;;;;;;;5.00;2.42;;;14.20;99.90;;;;;;7402363;19;20261;-49
2022/12/04 07:56:45;;;;;;;4.60;2.97;;;14.20;99.90;;;;;;7401811;19;19949;-48
2022/12/04 07:59:14;;;;;;;4.90;3.10;;;14.20;99.90;;;;;;7402031;19;19930;-49
2022/12/04 08:01:42;;;;;;;5.38;3.13;;;14.20;99.90;;;;;;7401858;19;19921;-48
2022/12/04 08:04:13;;;;;;;4.40;2.45;;;14.20;99.90;;;;;;7404737;19;19915;-49
2022/12/04 08:06:42;;;;;;;4.30;2.80;;;14.20;99.90;;;;;;7401239;19;20474;-47
2022/12/04 08:09:11;;;;;;;4.78;2.88;;;14.20;99.90;;;;;;7402127;19;19917;-46
2022/12/04 08:11:42;;;;;;;5.13;3.10;;;14.20;99.90;;;;;;7401769;19;19926;-47
2022/12/04 08:14:13;;;;;;;3.85;2.45;;;14.10;99.90;;;;;;7401838;19;19918;-49
2022/12/04 08:16:44;;;;;;;5.07;2.50;;;14.20;99.90;;;;;;7401580;19;19929;-49
2022/12/04 08:19:12;;;;;;;4.80;3.00;;;14.20;99.90;;;;;;7401676;19;19978;-49
2022/12/04 08:21:41;;;;;;;4.82;2.60;;;14.20;99.90;;;;;;7401615;19;20370;-45
2022/12/04 08:24:10;;;;;;;4.93;2.85;;;14.10;99.90;;;;;;7401751;19;19925;-46
2022/12/04 08:26:42;;;;;;;4.20;2.83;;;14.10;99.90;;;;;;7401383;19;19919;-47
2022/12/04 08:29:14;;;;;;;4.05;2.03;;;14.10;99.90;;;;;;7399096;19;19922;-47
2022/12/04 08:31:43;;;;;;;4.03;2.05;;;14.10;99.90;;;;;;7399589;19;19921;-47
2022/12/04 08:34:11;;;;;;;4.70;2.30;;;14.10;99.90;;;;;;7401051;19;19914;-49
2022/12/04 08:36:40;;;;;;;4.35;2.20;;;14.20;99.90;;;;;;7400798;19;19918;-48
2022/12/04 08:39:09;;;;;;;4.40;2.28;;;14.10;99.90;;;;;;7400949;19;19923;-49
2022/12/04 08:41:38;;;;;;;4.95;2.38;;;14.10;99.90;;;;;;7400658;19;19910;-48
2022/12/04 08:44:11;;;;;;;4.15;2.20;;;14.10;99.90;;;;;;7401052;19;19922;-47
2022/12/04 08:46:40;;;;;;;4.60;1.95;;;14.10;99.90;;;;;;7400571;19;19918;-49
2022/12/04 08:49:09;;;;;;;4.78;2.45;;;14.20;99.90;;;;;;7400586;19;20009;-48
2022/12/04 08:51:38;;;;;;;4.05;3.28;;;14.10;99.90;;;;;;7400975;19;19919;-48
2022/12/04 08:54:09;;;;;;;5.20;3.83;;;14.20;99.90;;;;;;7400369;19;19925;-46
2022/12/04 08:56:39;;;;;;;3.95;2.08;;;14.20;99.90;;;;;;7400036;19;20545;-47
2022/12/04 08:59:14;;;;;;;4.88;2.88;;;14.20;99.90;;;;;;7400816;19;19942;-48
2022/12/04 09:01:43;;;;;;;4.93;3.10;;;14.20;99.90;;;;;;7400776;19;19918;-46
2022/12/04 09:04:12;;;;;;;4.25;2.17;;;14.20;99.90;;;;;;7400189;19;19918;-46
2022/12/04 09:06:41;;;;;;;4.55;2.40;;;14.20;99.90;;;;;;7400064;19;20272;-46
2022/12/04 09:09:11;;;;;;;4.15;1.98;;;14.20;99.90;;;;;;7400086;19;19922;-53
2022/12/04 09:11:40;;;;;;;5.10;3.47;;;14.20;99.90;;;;;;7400409;19;20353;-53
2022/12/04 09:14:12;;;;;;;4.20;2.05;;;14.20;99.80;;;;;;7400217;19;19934;-45
2022/12/04 09:16:40;;;;;;;4.03;2.17;;;14.20;99.80;;;;;;7400188;19;19932;-46
2022/12/04 09:19:09;;;;;;;4.68;3.90;;;14.20;99.80;;;;;;7405965;19;19918;-48
2022/12/04 09:21:39;;;;;;;4.90;3.08;;;14.20;99.80;;;;;;7406472;19;19918;-48
2022/12/04 09:24:08;;;;;;;3.90;2.05;;;14.20;99.80;;;;;;7404423;19;19914;-46
2022/12/04 09:26:37;;;;;;;4.53;2.85;;;14.20;99.80;;;;;;7406078;19;19933;-46
2022/12/04 09:29:07;;;;;;;4.90;1.95;;;14.20;99.80;;;;;;7405769;19;19918;-46
2022/12/04 09:31:39;;;;;;;4.47;2.35;;;14.20;99.80;;;;;;7404156;19;20478;-49
2022/12/04 09:34:08;;;;;;;4.32;2.72;;;14.20;99.80;;;;;;7406251;19;19927;-49
2022/12/04 09:36:37;;;;;;;4.25;2.80;;;14.20;99.80;;;;;;7406040;19;20500;-49
2022/12/04 09:39:06;;;;;;;5.65;3.30;;;14.20;99.80;;;;;;7406167;19;19919;-47
2022/12/04 09:41:59;;;;;;;4.05;1.83;;;14.20;99.80;;;;;;7405948;19;19925;-47
2022/12/04 09:44:33;;;;;;;3.85;1.83;;;14.20;99.80;;;;;;7405755;19;20248;-48
2022/12/04 09:47:10;;;;;;;4.10;1.88;;;14.20;99.80;;;;;;7406069;19;19932;-49
2022/12/04 09:49:43;;;;;;;4.90;2.92;;;14.20;99.80;;;;;;7405736;19;19910;-48
2022/12/04 09:52:29;;;;;;;4.20;2.72;;;14.20;99.80;;;;;;7405712;19;19982;-48
2022/12/04 09:55:00;;;;;;;4.22;2.55;;;14.20;99.80;;;;;;7405725;19;19918;-46
2022/12/04 09:57:37;;;;;;;4.50;2.10;;;14.20;99.80;;;;;;7405284;19;19914;-46
2022/12/04 10:00:08;;;;;;;4.38;2.20;;;14.20;99.80;;;;;;7405664;19;19970;-49
2022/12/04 10:02:41;;;;;;;4.38;2.10;;;14.20;99.80;;;;;;7405321;19;19914;-48
2022/12/04 10:05:20;;;;;;;3.90;1.90;;;14.20;99.80;;;;;;7405437;19;19922;-49
2022/12/04 10:08:01;;;;;;;4.78;2.78;;;14.20;99.80;;;;;;7405474;19;20317;-46
2022/12/04 10:10:39;;;;;;;5.00;3.35;;;14.20;99.70;;;;;;7405077;19;19914;-49
2022/12/04 10:13:22;;;;;;;3.88;1.95;;;14.20;99.80;;;;;;7405137;19;19926;-48
2022/12/04 10:15:58;;;;;;;5.20;2.35;;;14.20;99.70;;;;;;7405150;19;20264;-47
2022/12/04 10:18:44;;;;;;;5.03;3.13;;;14.20;99.70;;;;;;7405053;19;19914;-49
2022/12/04 10:21:27;;;;;;;4.15;1.70;;;14.20;99.70;;;;;;7404950;19;19917;-46
2022/12/04 10:24:09;;;;;;;4.68;3.05;;;14.20;99.70;;;;;;7403660;19;19915;-47
2022/12/04 10:26:42;;;;;;;4.00;1.95;;;14.20;99.70;;;;;;7404646;19;20272;-48
2022/12/04 10:29:20;;;;;;;5.68;3.05;;;14.30;99.80;;;;;;7404098;19;20400;-47
2022/12/04 10:31:51;;;;;;;4.20;2.83;;;14.20;99.70;;;;;;7403130;19;20020;-47
2022/12/04 10:34:27;;;;;;;4.10;2.25;;;14.20;99.70;;;;;;7405220;19;19918;-49
2022/12/04 10:36:59;;;;;;;4.93;2.80;;;14.20;99.70;;;;;;7404468;19;19935;-48
2022/12/04 10:39:34;;;;;;;4.13;1.80;;;14.20;99.70;;;;;;7404568;19;19938;-47
2022/12/04 10:42:08;;;;;;;3.92;1.85;;;14.20;99.70;;;;;;7404594;19;19922;-46
2022/12/04 10:44:37;;;;;;;5.50;3.25;;;14.30;99.70;;;;;;7402384;19;19915;-47
2022/12/04 10:47:06;;;;;;;4.13;3.13;;;14.30;99.70;;;;;;7404437;19;20365;-50
2022/12/04 10:49:39;;;;;;;4.45;2.88;;;14.30;99.70;;;;;;7404209;19;20372;-47
2022/12/04 10:52:08;;;;;;;4.43;2.70;;;14.30;99.70;;;;;;7404326;19;19929;-47
2022/12/04 10:54:41;;;;;;;3.88;2.50;;;14.30;99.70;;;;;;7404596;19;19926;-47
2022/12/04 10:57:13;;;;;;;4.20;1.98;;;14.30;99.70;;;;;;7403660;19;19922;-46
2022/12/04 10:59:51;;;;;;;4.25;2.03;;;14.30;99.70;;;;;;7405897;19;19910;-47
2022/12/04 11:02:24;;;;;;;4.68;3.10;;;14.30;99.70;;;;;;7403833;19;19919;-46
2022/12/04 11:04:58;;;;;;;4.88;3.15;;;14.30;99.70;;;;;;7404279;19;19926;-47
2022/12/04 11:07:29;;;;;;;4.57;2.13;;;14.30;99.70;;;;;;7403356;19;20285;-48
2022/12/04 11:10:02;;;;;;;4.38;2.30;;;14.30;99.70;;;;;;7404064;19;19946;-48
2022/12/04 11:12:31;;;;;;;5.05;2.25;;;14.30;99.70;;;;;;7403615;19;19940;-46
2022/12/04 11:15:13;;;;;;;4.63;2.03;;;14.20;99.70;;;;;;7403829;19;19938;-47
2022/12/04 11:17:44;;;;;;;4.43;2.00;;;14.20;99.70;;;;;;7403375;19;20350;-48
2022/12/04 11:20:21;;;;;;;4.95;2.92;;;14.20;99.70;;;;;;7403204;19;19950;-45
2022/12/04 11:22:55;;;;;;;4.40;2.70;;;14.20;99.70;;;;;;7403526;19;20336;-46
2022/12/04 11:25:27;;;;;;;4.13;2.30;;;14.20;99.70;;;;;;7403045;19;20253;-49
2022/12/04 11:27:57;;;;;;;4.18;2.08;;;14.20;99.70;;;;;;7403146;19;20259;-46
2022/12/04 11:30:31;;;;;;;3.45;1.83;;;14.20;99.70;;;;;;7401477;19;19939;-46
2022/12/04 11:33:00;;;;;;;4.53;2.35;;;14.20;99.70;;;;;;7403599;19;19925;-47
2022/12/04 11:35:34;;;;;;;3.65;2.83;;;14.20;99.70;;;;;;7402849;19;19911;-45
2022/12/04 11:38:09;;;;;;;4.65;2.80;;;14.20;99.70;;;;;;7403081;19;19922;-48
2022/12/04 11:40:39;;;;;;;4.50;2.03;;;14.20;99.70;;;;;;7401314;19;19993;-46
2022/12/04 11:43:16;;;;;;;4.20;2.00;;;14.20;99.70;;;;;;7402365;19;19918;-45
2022/12/04 11:45:56;;;;;;;4.47;2.88;;;14.20;99.70;;;;;;7402708;19;19921;-47
2022/12/04 11:48:27;;;;;;;4.45;2.85;;;14.20;99.70;;;;;;7402412;19;19922;-45
2022/12/04 11:51:06;;;;;;;4.68;2.78;;;14.20;99.70;;;;;;7402442;19;19914;-47
2022/12/04 11:53:45;;;;;;;4.90;2.30;;;14.20;99.70;;;;;;7400582;19;19922;-47
2022/12/04 11:56:22;;;;;;;4.03;3.15;;;14.20;99.70;;;;;;7402682;19;19919;-47
2022/12/04 11:59:05;;;;;;;5.05;2.47;;;14.20;99.70;;;;;;7405834;19;19963;-45
2022/12/04 12:01:44;;;;;;;4.50;2.70;;;14.20;99.70;;;;;;7400735;19;19918;-48
2022/12/04 12:04:30;;;;;;;4.30;2.15;;;14.20;99.70;;;;;;7401028;19;19922;-46
2022/12/04 12:07:15;;;;;;;4.00;1.70;;;14.20;99.70;;;;;;7401759;19;19918;-46
2022/12/04 12:09:54;;;;;;;3.42;1.83;;;14.20;99.70;;;;;;7401850;19;19923;-44
2022/12/04 12:12:33;;;;;;;4.10;2.30;;;14.20;99.70;;;;;;7401764;19;19972;-45
2022/12/04 12:15:13;;;;;;;3.97;2.13;;;14.20;99.70;;;;;;7401728;19;19921;-48
2022/12/04 12:17:48;;;;;;;4.38;2.08;;;14.20;99.70;;;;;;7401515;19;20286;-45
2022/12/04 12:20:23;;;;;;;3.70;1.80;;;14.20;99.70;;;;;;7401611;19;19938;-47
2022/12/04 12:23:13;;;;;;;4.25;1.80;;;14.10;99.70;;;;;;7401461;19;19914;-44
2022/12/04 12:25:51;;;;;;;4.50;2.63;;;14.20;99.70;;;;;;7401650;19;19923;-45
2022/12/04 12:28:35;;;;;;;5.30;2.60;;;14.20;99.70;;;;;;7401133;19;19932;-46
2022/12/04 12:31:20;;;;;;;4.45;2.20;;;14.10;99.70;;;;;;7399210;19;19930;-45
2022/12/04 12:33:53;;;;;;;4.82;2.10;;;14.10;99.70;;;;;;7401313;19;19989;-47
2022/12/04 12:36:26;;;;;;;4.90;2.53;;;14.10;99.70;;;;;;7401330;19;19933;-45
2022/12/04 12:39:01;;;;;;;4.00;2.08;;;14.10;99.70;;;;;;7401190;19;20014;-45
2022/12/04 12:41:34;;;;;;;4.50;2.20;;;14.10;99.70;;;;;;7400970;19;20337;-45
2022/12/04 12:44:08;;;;;;;3.75;1.98;;;14.10;99.70;;;;;;7400047;19;19926;-48
2022/12/04 12:46:47;;;;;;;4.07;2.60;;;14.10;99.70;;;;;;7400760;19;19915;-45
2022/12/04 12:49:22;;;;;;;3.92;1.67;;;14.10;99.70;;;;;;7400687;19;19922;-45
2022/12/04 12:51:56;;;;;;;4.20;2.22;;;14.10;99.70;;;;;;7401096;19;19919;-44
2022/12/04 12:54:38;;;;;;;4.10;2.10;;;14.10;99.70;;;;;;7407071;19;20272;-46
2022/12/04 12:57:12;;;;;;;4.38;1.92;;;14.10;99.70;;;;;;7409892;19;19919;-48
2022/12/04 12:59:49;;;;;;;3.83;1.63;;;14.10;99.70;;;;;;7407148;19;19918;-44
2022/12/04 13:02:27;;;;;;;4.38;2.33;;;14.10;99.70;;;;;;7407409;19;19935;-44
2022/12/04 13:05:00;;;;;;;5.03;2.65;;;14.10;99.60;;;;;;7404913;19;19917;-45
2022/12/04 13:07:41;;;;;;;4.35;1.90;;;14.10;99.70;;;;;;7406999;19;20336;-44
2022/12/04 13:10:20;;;;;;;3.72;2.58;;;14.10;99.60;;;;;;7407360;19;20740;-44
2022/12/04 13:12:53;;;;;;;3.60;1.77;;;14.10;99.70;;;;;;7407237;19;19915;-44
2022/12/04 13:15:26;;;;;;;4.80;1.70;;;14.10;99.70;;;;;;7406909;19;19910;-45
2022/12/04 13:17:57;;;;;;;4.30;2.80;;;14.10;99.60;;;;;;7407017;19;20339;-44
2022/12/04 13:20:30;;;;;;;4.90;2.65;;;14.10;99.60;;;;;;7406650;19;19926;-44
2022/12/04 13:23:16;;;;;;;3.95;2.00;;;14.10;99.70;;;;;;7406567;19;19919;-47
2022/12/04 13:25:58;;;;;;;4.50;2.65;;;14.10;99.70;;;;;;7406477;19;19914;-47
2022/12/04 13:28:41;;;;;;;3.95;2.10;;;14.10;99.60;;;;;;7406242;19;19919;-43